sensor_id;sensor_type;location;lat;lon;timestamp;P1;durP1;ratioP1;P2;durP2;ratioP2
62256;SDS011;48240;52.962;5.790;2023-06-22T03:52:36;4.55;;;2.67;;
62256;SDS011;48240;52.962;5.790;2023-06-22T03:55:02;3.30;;;3.00;;
62256;SDS011;48240;52.962;5.790;2023-06-22T03:57:28;4.63;;;2.60;;
62256;SDS011;48240;52.962;5.790;2023-06-22T03:59:55;6.50;;;3.00;;
62256;SDS011;48240;52.962;5.790;2023-06-22T04:02:22;3.08;;;2.70;;
62256;SDS011;48240;52.962;5.790;2023-06-22T04:04:48;3.60;;;3.10;;
62256;SDS011;48240;52.962;5.790;2023-06-22T04:07:14;3.78;;;3.38;;
62256;SDS011;48240;52.962;5.790;2023-06-22T04:09:40;3.85;;;3.45;;
62256;SDS011;48240;52.962;5.790;2023-06-22T04:12:06;4.15;;;3.28;;
62256;SDS011;48240;52.962;5.790;2023-06-22T04:14:32;2.60;;;2.40;;
62256;SDS011;48240;52.962;5.790;2023-06-22T04:16:59;3.72;;;2.85;;
62256;SDS011;48240;52.962;5.790;2023-06-22T04:19:25;3.60;;;3.30;;
62256;SDS011;48240;52.962;5.790;2023-06-22T04:21:51;3.85;;;3.15;;
62256;SDS011;48240;52.962;5.790;2023-06-22T04:24:17;3.05;;;2.75;;
62256;SDS011;48240;52.962;5.790;2023-06-22T04:26:43;3.05;;;2.60;;
62256;SDS011;48240;52.962;5.790;2023-06-22T04:29:10;3.00;;;2.70;;
62256;SDS011;48240;52.962;5.790;2023-06-22T04:31:36;3.22;;;2.92;;
62256;SDS011;48240;52.962;5.790;2023-06-22T04:34:06;2.70;;;2.50;;
62256;SDS011;48240;52.962;5.790;2023-06-22T04:36:35;2.85;;;2.63;;
62256;SDS011;48240;52.962;5.790;2023-06-22T04:39:06;2.90;;;2.60;;
62256;SDS011;48240;52.962;5.790;2023-06-22T04:41:34;3.22;;;2.92;;
62256;SDS011;48240;52.962;5.790;2023-06-22T04:44:07;3.05;;;2.75;;
62256;SDS011;48240;52.962;5.790;2023-06-22T04:46:34;3.15;;;2.85;;
62256;SDS011;48240;52.962;5.790;2023-06-22T04:49:03;3.22;;;2.60;;
62256;SDS011;48240;52.962;5.790;2023-06-22T04:51:31;3.10;;;2.80;;
62256;SDS011;48240;52.962;5.790;2023-06-22T04:53:57;2.85;;;2.50;;
62256;SDS011;48240;52.962;5.790;2023-06-22T04:56:26;4.60;;;3.28;;
62256;SDS011;48240;52.962;5.790;2023-06-22T04:58:55;4.03;;;3.45;;
62256;SDS011;48240;52.962;5.790;2023-06-22T05:01:22;3.95;;;3.55;;
62256;SDS011;48240;52.962;5.790;2023-06-22T05:03:49;3.33;;;3.03;;
62256;SDS011;48240;52.962;5.790;2023-06-22T05:06:15;3.78;;;3.20;;
62256;SDS011;48240;52.962;5.790;2023-06-22T05:08:41;3.20;;;2.90;;
62256;SDS011;48240;52.962;5.790;2023-06-22T05:11:07;4.88;;;3.40;;
62256;SDS011;48240;52.962;5.790;2023-06-22T05:13:33;3.65;;;3.30;;
62256;SDS011;48240;52.962;5.790;2023-06-22T05:15:59;4.57;;;4.10;;
62256;SDS011;48240;52.962;5.790;2023-06-22T05:18:29;4.40;;;4.00;;
62256;SDS011;48240;52.962;5.790;2023-06-22T05:20:55;3.25;;;2.95;;
62256;SDS011;48240;52.962;5.790;2023-06-22T05:23:21;5.28;;;4.15;;
62256;SDS011;48240;52.962;5.790;2023-06-22T05:25:47;3.80;;;3.40;;
62256;SDS011;48240;52.962;5.790;2023-06-22T05:28:13;6.22;;;4.95;;
62256;SDS011;48240;52.962;5.790;2023-06-22T05:30:39;4.40;;;3.28;;
62256;SDS011;48240;52.962;5.790;2023-06-22T05:33:05;4.50;;;3.92;;
62256;SDS011;48240;52.962;5.790;2023-06-22T05:35:31;4.45;;;3.72;;
62256;SDS011;48240;52.962;5.790;2023-06-22T05:37:58;5.47;;;4.65;;
62256;SDS011;48240;52.962;5.790;2023-06-22T05:40:24;4.80;;;4.30;;
62256;SDS011;48240;52.962;5.790;2023-06-22T05:42:50;5.22;;;4.72;;
62256;SDS011;48240;52.962;5.790;2023-06-22T05:45:16;4.90;;;4.40;;
62256;SDS011;48240;52.962;5.790;2023-06-22T05:47:42;3.92;;;3.60;;
62256;SDS011;48240;52.962;5.790;2023-06-22T05:50:08;4.57;;;4.05;;
62256;SDS011;48240;52.962;5.790;2023-06-22T05:52:34;3.97;;;3.25;;
62256;SDS011;48240;52.962;5.790;2023-06-22T05:55:01;17.63;;;14.00;;
62256;SDS011;48240;52.962;5.790;2023-06-22T05:57:27;18.80;;;15.60;;
62256;SDS011;48240;52.962;5.790;2023-06-22T05:59:53;20.17;;;16.50;;
62256;SDS011;48240;52.962;5.790;2023-06-22T06:02:20;21.08;;;17.35;;
62256;SDS011;48240;52.962;5.790;2023-06-22T06:04:46;21.40;;;17.15;;
62256;SDS011;48240;52.962;5.790;2023-06-22T06:07:12;22.25;;;17.98;;
62256;SDS011;48240;52.962;5.790;2023-06-22T06:09:38;26.92;;;18.73;;
62256;SDS011;48240;52.962;5.790;2023-06-22T06:12:04;25.25;;;18.75;;
62256;SDS011;48240;52.962;5.790;2023-06-22T06:14:30;21.80;;;18.98;;
62256;SDS011;48240;52.962;5.790;2023-06-22T06:16:56;24.27;;;19.55;;
62256;SDS011;48240;52.962;5.790;2023-06-22T06:19:22;27.38;;;20.13;;
62256;SDS011;48240;52.962;5.790;2023-06-22T06:21:48;25.50;;;18.58;;
62256;SDS011;48240;52.962;5.790;2023-06-22T06:24:15;29.10;;;20.10;;
62256;SDS011;48240;52.962;5.790;2023-06-22T06:26:41;21.80;;;16.10;;
62256;SDS011;48240;52.962;5.790;2023-06-22T06:29:07;16.25;;;13.07;;
62256;SDS011;48240;52.962;5.790;2023-06-22T06:31:33;15.32;;;11.68;;
62256;SDS011;48240;52.962;5.790;2023-06-22T06:34:00;16.92;;;10.40;;
62256;SDS011;48240;52.962;5.790;2023-06-22T06:36:26;13.73;;;9.93;;
62256;SDS011;48240;52.962;5.790;2023-06-22T06:38:52;16.80;;;10.30;;
62256;SDS011;48240;52.962;5.790;2023-06-22T06:41:18;16.45;;;10.05;;
62256;SDS011;48240;52.962;5.790;2023-06-22T06:43:46;18.02;;;10.50;;
62256;SDS011;48240;52.962;5.790;2023-06-22T06:46:12;12.52;;;9.18;;
62256;SDS011;48240;52.962;5.790;2023-06-22T06:48:38;13.93;;;9.73;;
62256;SDS011;48240;52.962;5.790;2023-06-22T06:51:05;14.88;;;9.43;;
62256;SDS011;48240;52.962;5.790;2023-06-22T06:53:34;11.57;;;8.38;;
62256;SDS011;48240;52.962;5.790;2023-06-22T06:56:00;13.30;;;8.90;;
62256;SDS011;48240;52.962;5.790;2023-06-22T06:58:27;12.32;;;8.98;;
62256;SDS011;48240;52.962;5.790;2023-06-22T07:00:53;11.93;;;8.68;;
62256;SDS011;48240;52.962;5.790;2023-06-22T07:03:19;14.15;;;8.02;;
62256;SDS011;48240;52.962;5.790;2023-06-22T07:05:45;15.30;;;9.75;;
62256;SDS011;48240;52.962;5.790;2023-06-22T07:08:11;15.10;;;9.65;;
62256;SDS011;48240;52.962;5.790;2023-06-22T07:10:37;15.32;;;9.35;;
62256;SDS011;48240;52.962;5.790;2023-06-22T07:13:03;12.95;;;9.63;;
62256;SDS011;48240;52.962;5.790;2023-06-22T07:15:30;12.30;;;9.73;;
62256;SDS011;48240;52.962;5.790;2023-06-22T07:17:56;12.35;;;8.73;;
62256;SDS011;48240;52.962;5.790;2023-06-22T07:20:22;13.25;;;8.60;;
62256;SDS011;48240;52.962;5.790;2023-06-22T07:22:48;9.93;;;7.15;;
62256;SDS011;48240;52.962;5.790;2023-06-22T07:25:14;12.27;;;7.10;;
62256;SDS011;48240;52.962;5.790;2023-06-22T07:28:13;10.02;;;6.70;;
62256;SDS011;48240;52.962;5.790;2023-06-22T07:30:33;13.02;;;7.35;;
62256;SDS011;48240;52.962;5.790;2023-06-22T07:32:59;9.75;;;6.57;;
62256;SDS011;48240;52.962;5.790;2023-06-22T07:35:32;10.63;;;6.85;;
62256;SDS011;48240;52.962;5.790;2023-06-22T07:37:58;12.10;;;7.28;;
62256;SDS011;48240;52.962;5.790;2023-06-22T07:40:24;9.90;;;6.88;;
62256;SDS011;48240;52.962;5.790;2023-06-22T07:42:50;11.45;;;8.38;;
62256;SDS011;48240;52.962;5.790;2023-06-22T07:45:18;10.23;;;7.25;;
62256;SDS011;48240;52.962;5.790;2023-06-22T07:47:44;10.52;;;7.45;;
62256;SDS011;48240;52.962;5.790;2023-06-22T07:50:10;8.18;;;6.90;;
62256;SDS011;48240;52.962;5.790;2023-06-22T07:52:36;9.10;;;7.22;;
62256;SDS011;48240;52.962;5.790;2023-06-22T07:55:02;11.75;;;7.50;;
62256;SDS011;48240;52.962;5.790;2023-06-22T07:57:29;9.02;;;6.40;;
62256;SDS011;48240;52.962;5.790;2023-06-22T08:00:02;14.10;;;6.75;;
62256;SDS011;48240;52.962;5.790;2023-06-22T08:02:38;9.57;;;6.82;;
62256;SDS011;48240;52.962;5.790;2023-06-22T08:05:05;10.43;;;5.97;;
62256;SDS011;48240;52.962;5.790;2023-06-22T08:07:33;7.93;;;6.53;;
62256;SDS011;48240;52.962;5.790;2023-06-22T08:10:00;10.18;;;5.63;;
62256;SDS011;48240;52.962;5.790;2023-06-22T08:12:27;11.10;;;5.90;;
62256;SDS011;48240;52.962;5.790;2023-06-22T08:14:53;8.60;;;6.10;;
62256;SDS011;48240;52.962;5.790;2023-06-22T08:17:19;11.75;;;6.82;;
62256;SDS011;48240;52.962;5.790;2023-06-22T08:19:45;9.50;;;6.65;;
62256;SDS011;48240;52.962;5.790;2023-06-22T08:22:11;8.63;;;6.93;;
62256;SDS011;48240;52.962;5.790;2023-06-22T08:24:38;7.45;;;5.50;;
62256;SDS011;48240;52.962;5.790;2023-06-22T08:27:05;9.35;;;5.88;;
62256;SDS011;48240;52.962;5.790;2023-06-22T08:29:34;10.73;;;4.90;;
62256;SDS011;48240;52.962;5.790;2023-06-22T08:32:00;8.85;;;5.13;;
62256;SDS011;48240;52.962;5.790;2023-06-22T08:34:26;8.77;;;6.40;;
62256;SDS011;48240;52.962;5.790;2023-06-22T08:36:53;7.72;;;5.13;;
62256;SDS011;48240;52.962;5.790;2023-06-22T08:39:19;7.97;;;5.07;;
62256;SDS011;48240;52.962;5.790;2023-06-22T08:41:48;7.07;;;5.05;;
62256;SDS011;48240;52.962;5.790;2023-06-22T08:44:16;9.32;;;5.10;;
62256;SDS011;48240;52.962;5.790;2023-06-22T08:46:42;9.68;;;5.15;;
62256;SDS011;48240;52.962;5.790;2023-06-22T08:49:09;11.55;;;6.85;;
62256;SDS011;48240;52.962;5.790;2023-06-22T08:51:35;6.15;;;5.03;;
62256;SDS011;48240;52.962;5.790;2023-06-22T08:54:01;8.80;;;4.93;;
62256;SDS011;48240;52.962;5.790;2023-06-22T08:56:27;6.90;;;5.15;;
62256;SDS011;48240;52.962;5.790;2023-06-22T08:58:53;8.60;;;4.97;;
62256;SDS011;48240;52.962;5.790;2023-06-22T09:01:20;10.00;;;5.40;;
62256;SDS011;48240;52.962;5.790;2023-06-22T09:03:46;12.20;;;5.18;;
62256;SDS011;48240;52.962;5.790;2023-06-22T09:06:19;6.20;;;4.78;;
62256;SDS011;48240;52.962;5.790;2023-06-22T09:08:46;9.75;;;4.85;;
62256;SDS011;48240;52.962;5.790;2023-06-22T09:11:12;8.48;;;5.00;;
62256;SDS011;48240;52.962;5.790;2023-06-22T09:13:38;10.38;;;5.28;;
62256;SDS011;48240;52.962;5.790;2023-06-22T09:16:04;10.23;;;5.30;;
62256;SDS011;48240;52.962;5.790;2023-06-22T09:18:31;8.50;;;4.72;;
62256;SDS011;48240;52.962;5.790;2023-06-22T09:20:57;12.35;;;4.60;;
62256;SDS011;48240;52.962;5.790;2023-06-22T09:23:24;8.65;;;5.10;;
62256;SDS011;48240;52.962;5.790;2023-06-22T09:25:50;6.78;;;4.55;;
62256;SDS011;48240;52.962;5.790;2023-06-22T09:28:16;7.93;;;4.80;;
62256;SDS011;48240;52.962;5.790;2023-06-22T09:30:45;5.55;;;4.10;;
62256;SDS011;48240;52.962;5.790;2023-06-22T09:33:11;8.32;;;5.15;;
62256;SDS011;48240;52.962;5.790;2023-06-22T09:35:37;9.70;;;4.40;;
62256;SDS011;48240;52.962;5.790;2023-06-22T09:38:03;7.40;;;4.35;;
62256;SDS011;48240;52.962;5.790;2023-06-22T09:40:29;6.00;;;4.75;;
62256;SDS011;48240;52.962;5.790;2023-06-22T09:42:57;7.95;;;5.03;;
62256;SDS011;48240;52.962;5.790;2023-06-22T09:45:23;6.78;;;4.60;;
62256;SDS011;48240;52.962;5.790;2023-06-22T09:47:49;7.82;;;4.35;;
62256;SDS011;48240;52.962;5.790;2023-06-22T09:50:16;6.47;;;4.18;;
62256;SDS011;48240;52.962;5.790;2023-06-22T09:52:42;5.05;;;3.85;;
62256;SDS011;48240;52.962;5.790;2023-06-22T09:55:09;5.68;;;4.18;;
62256;SDS011;48240;52.962;5.790;2023-06-22T09:57:35;5.30;;;4.45;;
62256;SDS011;48240;52.962;5.790;2023-06-22T10:00:02;7.22;;;4.70;;
62256;SDS011;48240;52.962;5.790;2023-06-22T10:02:30;6.18;;;4.22;;
62256;SDS011;48240;52.962;5.790;2023-06-22T10:04:56;5.97;;;4.00;;
62256;SDS011;48240;52.962;5.790;2023-06-22T10:07:22;7.20;;;4.20;;
62256;SDS011;48240;52.962;5.790;2023-06-22T10:09:49;4.50;;;4.10;;
62256;SDS011;48240;52.962;5.790;2023-06-22T10:12:15;7.28;;;4.53;;
62256;SDS011;48240;52.962;5.790;2023-06-22T10:14:41;4.47;;;3.78;;
62256;SDS011;48240;52.962;5.790;2023-06-22T10:17:07;5.57;;;3.78;;
62256;SDS011;48240;52.962;5.790;2023-06-22T10:19:33;5.90;;;4.00;;
62256;SDS011;48240;52.962;5.790;2023-06-22T10:22:02;4.35;;;3.78;;
62256;SDS011;48240;52.962;5.790;2023-06-22T10:24:28;5.25;;;3.65;;
62256;SDS011;48240;52.962;5.790;2023-06-22T10:26:54;6.32;;;4.07;;
62256;SDS011;48240;52.962;5.790;2023-06-22T10:29:20;7.00;;;3.78;;
62256;SDS011;48240;52.962;5.790;2023-06-22T10:31:46;5.90;;;3.63;;
62256;SDS011;48240;52.962;5.790;2023-06-22T10:34:12;8.93;;;4.10;;
62256;SDS011;48240;52.962;5.790;2023-06-22T10:36:38;6.20;;;3.70;;
62256;SDS011;48240;52.962;5.790;2023-06-22T10:39:04;5.13;;;3.58;;
62256;SDS011;48240;52.962;5.790;2023-06-22T10:41:31;6.93;;;3.80;;
62256;SDS011;48240;52.962;5.790;2023-06-22T10:43:57;4.18;;;3.50;;
62256;SDS011;48240;52.962;5.790;2023-06-22T10:46:26;5.68;;;3.47;;
62256;SDS011;48240;52.962;5.790;2023-06-22T10:48:52;6.28;;;3.70;;
62256;SDS011;48240;52.962;5.790;2023-06-22T10:53:50;4.63;;;3.55;;
62256;SDS011;48240;52.962;5.790;2023-06-22T10:56:17;4.78;;;3.80;;
62256;SDS011;48240;52.962;5.790;2023-06-22T10:58:44;6.00;;;3.78;;
62256;SDS011;48240;52.962;5.790;2023-06-22T11:01:10;4.70;;;3.65;;
62256;SDS011;48240;52.962;5.790;2023-06-22T11:03:36;6.53;;;3.65;;
62256;SDS011;48240;52.962;5.790;2023-06-22T11:06:02;5.28;;;3.40;;
62256;SDS011;48240;52.962;5.790;2023-06-22T11:08:28;5.95;;;3.38;;
62256;SDS011;48240;52.962;5.790;2023-06-22T11:10:54;10.18;;;3.35;;
62256;SDS011;48240;52.962;5.790;2023-06-22T11:13:20;6.35;;;3.40;;
62256;SDS011;48240;52.962;5.790;2023-06-22T11:15:46;8.90;;;3.60;;
62256;SDS011;48240;52.962;5.790;2023-06-22T11:18:12;10.52;;;3.53;;
62256;SDS011;48240;52.962;5.790;2023-06-22T11:20:38;5.20;;;3.17;;
62256;SDS011;48240;52.962;5.790;2023-06-22T11:23:05;7.07;;;3.13;;
62256;SDS011;48240;52.962;5.790;2023-06-22T11:25:32;3.58;;;3.13;;
62256;SDS011;48240;52.962;5.790;2023-06-22T11:28:01;6.47;;;3.25;;
62256;SDS011;48240;52.962;5.790;2023-06-22T11:30:27;7.15;;;3.47;;
62256;SDS011;48240;52.962;5.790;2023-06-22T11:32:53;4.40;;;3.25;;
62256;SDS011;48240;52.962;5.790;2023-06-22T11:35:19;5.05;;;3.15;;
62256;SDS011;48240;52.962;5.790;2023-06-22T11:37:45;5.32;;;3.17;;
62256;SDS011;48240;52.962;5.790;2023-06-22T11:40:11;4.50;;;2.90;;
62256;SDS011;48240;52.962;5.790;2023-06-22T11:42:38;4.60;;;3.10;;
62256;SDS011;48240;52.962;5.790;2023-06-22T11:45:04;4.35;;;2.80;;
62256;SDS011;48240;52.962;5.790;2023-06-22T11:47:30;5.57;;;3.40;;
62256;SDS011;48240;52.962;5.790;2023-06-22T11:49:56;5.32;;;3.15;;
62256;SDS011;48240;52.962;5.790;2023-06-22T11:52:22;6.10;;;3.05;;
62256;SDS011;48240;52.962;5.790;2023-06-22T11:54:49;7.82;;;3.60;;
62256;SDS011;48240;52.962;5.790;2023-06-22T11:57:15;8.00;;;3.60;;
62256;SDS011;48240;52.962;5.790;2023-06-22T11:59:41;5.93;;;3.20;;
62256;SDS011;48240;52.962;5.790;2023-06-22T12:02:07;5.90;;;3.20;;
62256;SDS011;48240;52.962;5.790;2023-06-22T12:04:34;5.95;;;3.33;;
62256;SDS011;48240;52.962;5.790;2023-06-22T12:07:00;9.38;;;3.30;;
62256;SDS011;48240;52.962;5.790;2023-06-22T12:09:27;6.07;;;3.08;;
62256;SDS011;48240;52.962;5.790;2023-06-22T12:11:53;7.03;;;3.20;;
62256;SDS011;48240;52.962;5.790;2023-06-22T12:14:19;6.38;;;3.20;;
62256;SDS011;48240;52.962;5.790;2023-06-22T12:16:45;4.25;;;3.25;;
62256;SDS011;48240;52.962;5.790;2023-06-22T12:19:11;5.82;;;3.63;;
62256;SDS011;48240;52.962;5.790;2023-06-22T12:21:37;5.07;;;3.20;;
62256;SDS011;48240;52.962;5.790;2023-06-22T12:24:05;3.88;;;3.10;;
62256;SDS011;48240;52.962;5.790;2023-06-22T12:26:31;3.92;;;2.92;;
62256;SDS011;48240;52.962;5.790;2023-06-22T12:28:57;4.57;;;3.15;;
62256;SDS011;48240;52.962;5.790;2023-06-22T12:31:23;6.07;;;3.10;;
62256;SDS011;48240;52.962;5.790;2023-06-22T12:33:49;5.55;;;3.00;;
62256;SDS011;48240;52.962;5.790;2023-06-22T12:36:16;8.02;;;3.58;;
62256;SDS011;48240;52.962;5.790;2023-06-22T12:38:42;5.28;;;3.17;;
62256;SDS011;48240;52.962;5.790;2023-06-22T12:41:08;6.07;;;2.95;;
62256;SDS011;48240;52.962;5.790;2023-06-22T12:43:34;5.68;;;3.20;;
62256;SDS011;48240;52.962;5.790;2023-06-22T12:46:00;6.07;;;2.97;;
62256;SDS011;48240;52.962;5.790;2023-06-22T12:48:27;6.28;;;3.58;;
62256;SDS011;48240;52.962;5.790;2023-06-22T12:50:53;4.68;;;3.20;;
62256;SDS011;48240;52.962;5.790;2023-06-22T12:53:19;7.63;;;3.10;;
62256;SDS011;48240;52.962;5.790;2023-06-22T12:55:47;4.20;;;2.50;;
62256;SDS011;48240;52.962;5.790;2023-06-22T12:58:13;5.40;;;3.00;;
62256;SDS011;48240;52.962;5.790;2023-06-22T13:00:39;5.13;;;3.00;;
62256;SDS011;48240;52.962;5.790;2023-06-22T13:03:05;5.43;;;3.10;;
62256;SDS011;48240;52.962;5.790;2023-06-22T13:05:31;3.85;;;3.10;;
62256;SDS011;48240;52.962;5.790;2023-06-22T13:07:59;3.47;;;2.63;;
62256;SDS011;48240;52.962;5.790;2023-06-22T13:10:26;5.32;;;2.92;;
62256;SDS011;48240;52.962;5.790;2023-06-22T13:12:52;4.40;;;2.92;;
62256;SDS011;48240;52.962;5.790;2023-06-22T13:15:25;7.65;;;3.20;;
62256;SDS011;48240;52.962;5.790;2023-06-22T13:17:51;5.03;;;3.13;;
62256;SDS011;48240;52.962;5.790;2023-06-22T13:20:17;10.93;;;3.53;;
62256;SDS011;48240;52.962;5.790;2023-06-22T13:22:43;7.55;;;2.95;;
62256;SDS011;48240;52.962;5.790;2023-06-22T13:25:09;7.05;;;3.10;;
62256;SDS011;48240;52.962;5.790;2023-06-22T13:27:40;7.57;;;3.10;;
62256;SDS011;48240;52.962;5.790;2023-06-22T13:30:07;7.18;;;3.10;;
62256;SDS011;48240;52.962;5.790;2023-06-22T13:32:33;5.57;;;3.25;;
62256;SDS011;48240;52.962;5.790;2023-06-22T13:34:59;5.30;;;3.03;;
62256;SDS011;48240;52.962;5.790;2023-06-22T13:37:25;4.32;;;2.70;;
62256;SDS011;48240;52.962;5.790;2023-06-22T13:39:52;5.35;;;2.90;;
62256;SDS011;48240;52.962;5.790;2023-06-22T13:42:21;6.28;;;3.08;;
62256;SDS011;48240;52.962;5.790;2023-06-22T13:44:47;4.03;;;2.80;;
62256;SDS011;48240;52.962;5.790;2023-06-22T13:47:13;3.75;;;2.83;;
62256;SDS011;48240;52.962;5.790;2023-06-22T13:49:39;4.18;;;2.90;;
62256;SDS011;48240;52.962;5.790;2023-06-22T13:52:05;4.05;;;3.15;;
62256;SDS011;48240;52.962;5.790;2023-06-22T13:54:35;4.07;;;2.92;;
62256;SDS011;48240;52.962;5.790;2023-06-22T13:57:01;5.35;;;2.95;;
62256;SDS011;48240;52.962;5.790;2023-06-22T13:59:28;3.97;;;2.70;;
62256;SDS011;48240;52.962;5.790;2023-06-22T14:01:54;3.83;;;2.70;;
62256;SDS011;48240;52.962;5.790;2023-06-22T14:04:21;4.25;;;2.72;;
62256;SDS011;48240;52.962;5.790;2023-06-22T14:06:47;5.90;;;2.72;;
62256;SDS011;48240;52.962;5.790;2023-06-22T14:09:13;7.05;;;2.95;;
62256;SDS011;48240;52.962;5.790;2023-06-22T14:11:39;4.43;;;2.63;;
62256;SDS011;48240;52.962;5.790;2023-06-22T14:14:05;5.38;;;2.72;;
62256;SDS011;48240;52.962;5.790;2023-06-22T14:16:31;4.20;;;2.60;;
62256;SDS011;48240;52.962;5.790;2023-06-22T14:18:57;8.32;;;2.85;;
62256;SDS011;48240;52.962;5.790;2023-06-22T14:21:23;3.88;;;2.50;;
62256;SDS011;48240;52.962;5.790;2023-06-22T14:23:51;3.97;;;2.42;;
62256;SDS011;48240;52.962;5.790;2023-06-22T14:26:17;3.38;;;2.53;;
62256;SDS011;48240;52.962;5.790;2023-06-22T14:28:44;4.00;;;2.40;;
62256;SDS011;48240;52.962;5.790;2023-06-22T14:31:18;3.20;;;2.28;;
62256;SDS011;48240;52.962;5.790;2023-06-22T14:33:48;2.70;;;2.40;;
62256;SDS011;48240;52.962;5.790;2023-06-22T14:36:15;4.47;;;2.53;;
62256;SDS011;48240;52.962;5.790;2023-06-22T14:38:42;4.00;;;2.63;;
62256;SDS011;48240;52.962;5.790;2023-06-22T14:41:08;4.95;;;2.45;;
62256;SDS011;48240;52.962;5.790;2023-06-22T14:43:34;7.28;;;2.63;;
62256;SDS011;48240;52.962;5.790;2023-06-22T14:46:01;6.25;;;2.75;;
62256;SDS011;48240;52.962;5.790;2023-06-22T14:48:27;30.48;;;7.25;;
62256;SDS011;48240;52.962;5.790;2023-06-22T14:50:53;25.73;;;6.45;;
62256;SDS011;48240;52.962;5.790;2023-06-22T14:53:19;18.52;;;6.20;;
62256;SDS011;48240;52.962;5.790;2023-06-22T14:55:45;20.65;;;6.50;;
62256;SDS011;48240;52.962;5.790;2023-06-22T14:58:11;24.90;;;7.68;;
62256;SDS011;48240;52.962;5.790;2023-06-22T15:00:38;19.13;;;5.75;;
62256;SDS011;48240;52.962;5.790;2023-06-22T15:03:04;20.48;;;6.00;;
62256;SDS011;48240;52.962;5.790;2023-06-22T15:05:32;26.63;;;6.65;;
62256;SDS011;48240;52.962;5.790;2023-06-22T15:07:58;34.05;;;7.70;;
62256;SDS011;48240;52.962;5.790;2023-06-22T15:10:24;43.55;;;8.73;;
62256;SDS011;48240;52.962;5.790;2023-06-22T15:12:50;41.28;;;10.25;;
62256;SDS011;48240;52.962;5.790;2023-06-22T15:15:16;73.43;;;16.48;;
62256;SDS011;48240;52.962;5.790;2023-06-22T15:17:43;54.38;;;12.88;;
62256;SDS011;48240;52.962;5.790;2023-06-22T15:20:09;47.10;;;12.55;;
62256;SDS011;48240;52.962;5.790;2023-06-22T15:22:35;57.38;;;13.30;;
62256;SDS011;48240;52.962;5.790;2023-06-22T15:25:01;64.05;;;14.52;;
62256;SDS011;48240;52.962;5.790;2023-06-22T15:27:28;59.03;;;13.00;;
62256;SDS011;48240;52.962;5.790;2023-06-22T15:29:54;62.45;;;13.23;;
62256;SDS011;48240;52.962;5.790;2023-06-22T15:32:21;48.63;;;12.43;;
62256;SDS011;48240;52.962;5.790;2023-06-22T15:34:47;47.85;;;12.02;;
62256;SDS011;48240;52.962;5.790;2023-06-22T15:37:15;50.45;;;12.60;;
62256;SDS011;48240;52.962;5.790;2023-06-22T15:39:41;42.63;;;10.98;;
62256;SDS011;48240;52.962;5.790;2023-06-22T15:42:08;36.00;;;10.80;;
62256;SDS011;48240;52.962;5.790;2023-06-22T15:44:34;31.02;;;9.82;;
62256;SDS011;48240;52.962;5.790;2023-06-22T15:47:00;33.10;;;9.27;;
62256;SDS011;48240;52.962;5.790;2023-06-22T15:49:26;13.25;;;3.85;;
62256;SDS011;48240;52.962;5.790;2023-06-22T15:51:52;7.97;;;3.28;;
62256;SDS011;48240;52.962;5.790;2023-06-22T15:54:19;9.45;;;2.92;;
62256;SDS011;48240;52.962;5.790;2023-06-22T15:56:45;10.23;;;3.90;;
62256;SDS011;48240;52.962;5.790;2023-06-22T15:59:11;8.90;;;3.08;;
62256;SDS011;48240;52.962;5.790;2023-06-22T16:01:37;5.53;;;2.03;;
62256;SDS011;48240;52.962;5.790;2023-06-22T16:04:03;6.35;;;2.17;;
62256;SDS011;48240;52.962;5.790;2023-06-22T16:06:29;6.22;;;2.00;;
62256;SDS011;48240;52.962;5.790;2023-06-22T16:08:55;5.78;;;1.83;;
62256;SDS011;48240;52.962;5.790;2023-06-22T16:11:21;4.13;;;1.48;;
62256;SDS011;48240;52.962;5.790;2023-06-22T16:13:48;3.53;;;1.30;;
62256;SDS011;48240;52.962;5.790;2023-06-22T16:16:14;4.90;;;1.40;;
62256;SDS011;48240;52.962;5.790;2023-06-22T16:18:41;4.40;;;1.30;;
62256;SDS011;48240;52.962;5.790;2023-06-22T16:21:07;2.35;;;1.38;;
62256;SDS011;48240;52.962;5.790;2023-06-22T16:23:33;3.80;;;1.58;;
62256;SDS011;48240;52.962;5.790;2023-06-22T16:26:00;2.55;;;1.38;;
62256;SDS011;48240;52.962;5.790;2023-06-22T16:28:26;3.55;;;1.40;;
62256;SDS011;48240;52.962;5.790;2023-06-22T16:30:52;1.70;;;1.10;;
62256;SDS011;48240;52.962;5.790;2023-06-22T16:33:18;2.72;;;1.17;;
62256;SDS011;48240;52.962;5.790;2023-06-22T16:35:44;2.58;;;1.30;;
62256;SDS011;48240;52.962;5.790;2023-06-22T16:38:10;3.15;;;1.27;;
62256;SDS011;48240;52.962;5.790;2023-06-22T16:40:36;2.30;;;1.40;;
62256;SDS011;48240;52.962;5.790;2023-06-22T16:43:02;4.05;;;1.52;;
62256;SDS011;48240;52.962;5.790;2023-06-22T16:45:28;4.65;;;1.45;;
62256;SDS011;48240;52.962;5.790;2023-06-22T16:47:57;2.75;;;1.20;;
62256;SDS011;48240;52.962;5.790;2023-06-22T16:50:23;2.40;;;1.30;;
62256;SDS011;48240;52.962;5.790;2023-06-22T16:52:50;4.40;;;1.52;;
62256;SDS011;48240;52.962;5.790;2023-06-22T16:55:16;9.48;;;1.70;;
62256;SDS011;48240;52.962;5.790;2023-06-22T16:57:42;5.20;;;1.70;;
62256;SDS011;48240;52.962;5.790;2023-06-22T17:00:08;4.25;;;2.00;;
62256;SDS011;48240;52.962;5.790;2023-06-22T17:02:56;2.97;;;1.83;;
62256;SDS011;48240;52.962;5.790;2023-06-22T17:05:23;5.25;;;1.80;;
62256;SDS011;48240;52.962;5.790;2023-06-22T17:07:52;5.20;;;1.50;;
62256;SDS011;48240;52.962;5.790;2023-06-22T17:10:21;3.53;;;1.80;;
62256;SDS011;48240;52.962;5.790;2023-06-22T17:12:48;3.15;;;1.50;;
62256;SDS011;48240;52.962;5.790;2023-06-22T17:15:14;5.82;;;1.50;;
62256;SDS011;48240;52.962;5.790;2023-06-22T17:17:40;3.88;;;1.70;;
62256;SDS011;48240;52.962;5.790;2023-06-22T17:20:06;3.38;;;1.65;;
62256;SDS011;48240;52.962;5.790;2023-06-22T17:22:33;3.53;;;1.40;;
62256;SDS011;48240;52.962;5.790;2023-06-22T17:25:06;3.20;;;1.67;;
62256;SDS011;48240;52.962;5.790;2023-06-22T17:27:34;3.15;;;1.75;;
62256;SDS011;48240;52.962;5.790;2023-06-22T17:32:29;4.30;;;2.10;;
62256;SDS011;48240;52.962;5.790;2023-06-22T17:34:56;4.88;;;1.88;;
62256;SDS011;48240;52.962;5.790;2023-06-22T17:37:22;3.67;;;2.08;;
62256;SDS011;48240;52.962;5.790;2023-06-22T17:39:51;6.63;;;2.30;;
62256;SDS011;48240;52.962;5.790;2023-06-22T17:42:21;3.60;;;2.23;;
62256;SDS011;48240;52.962;5.790;2023-06-22T17:44:48;3.58;;;2.45;;
62256;SDS011;48240;52.962;5.790;2023-06-22T17:47:14;4.80;;;2.70;;
62256;SDS011;48240;52.962;5.790;2023-06-22T17:49:48;6.32;;;2.72;;
62256;SDS011;48240;52.962;5.790;2023-06-22T17:52:17;4.50;;;2.70;;
62256;SDS011;48240;52.962;5.790;2023-06-22T17:54:44;6.47;;;2.85;;
62256;SDS011;48240;52.962;5.790;2023-06-22T17:57:13;3.97;;;2.55;;
62256;SDS011;48240;52.962;5.790;2023-06-22T17:59:40;3.42;;;2.90;;
62256;SDS011;48240;52.962;5.790;2023-06-22T18:02:06;5.15;;;3.03;;
62256;SDS011;48240;52.962;5.790;2023-06-22T18:04:33;6.25;;;2.88;;
62256;SDS011;48240;52.962;5.790;2023-06-22T18:06:59;8.05;;;3.15;;
62256;SDS011;48240;52.962;5.790;2023-06-22T18:09:26;5.05;;;2.85;;
62256;SDS011;48240;52.962;5.790;2023-06-22T18:11:53;3.38;;;2.53;;
62256;SDS011;48240;52.962;5.790;2023-06-22T18:14:20;5.65;;;2.85;;
62256;SDS011;48240;52.962;5.790;2023-06-22T18:16:48;6.60;;;3.13;;
62256;SDS011;48240;52.962;5.790;2023-06-22T18:19:14;3.90;;;2.80;;
62256;SDS011;48240;52.962;5.790;2023-06-22T18:21:41;6.13;;;3.00;;
62256;SDS011;48240;52.962;5.790;2023-06-22T18:24:07;7.43;;;2.95;;
62256;SDS011;48240;52.962;5.790;2023-06-22T18:26:34;3.95;;;2.50;;
62256;SDS011;48240;52.962;5.790;2023-06-22T18:29:01;5.45;;;2.90;;
62256;SDS011;48240;52.962;5.790;2023-06-22T18:31:29;3.78;;;2.47;;
62256;SDS011;48240;52.962;5.790;2023-06-22T18:33:58;5.32;;;2.55;;
62256;SDS011;48240;52.962;5.790;2023-06-22T18:36:26;5.45;;;3.33;;